KFAM/FAM METAR and TAF weather

Enter ICAO airport designator
Station Type Date Time Source
KFAM METAR 2019/04/20 17:56 UTC NOAA

KFAM 201756Z AUTO 33011G20KT 10SM CLR 17/M02 A2991 RMK AO2 SLP126 T01721022 10172 20067 58002


Station Type Date Time Source
KFAM Decoded METAR 2019/04/20 17:56 UTC NOAA

Farmington Airport, MO, United States (KFAM) 37-46N 090-26W
Apr 20, 2019 - 01:56 PM EDT / 2019.04.20 1756 UTC
Wind: from the NNW (330 degrees) at 13 MPH (11 KT) gusting to 23 MPH (20 KT):0
Visibility: 10 mile(s):0
Sky conditions: clear
Temperature: 63.0 F (17.2 C)
Dew Point: 28.0 F (-2.2 C)
Relative Humidity: 26%
Pressure (altimeter): 29.91 in. Hg (1012 hPa)
Pressure tendency: 0.01 inches (0.2 hPa) lower than three hours ago
ob: KFAM 201756Z AUTO 33011G20KT 10SM CLR 17/M02 A2991 RMK AO2 SLP126 T01721022 10172 20067 58002
cycle: 18

Station Type Date Time Source
KFAM TAF UTC NOAA

Error!

Example: see airport list